createdAt,value
2022-08-12T00:02:03.272Z,96489.63
2022-08-12T00:04:50.355Z,96488.06
2022-08-12T00:07:36.172Z,96490.78
2022-08-12T00:10:22.080Z,96499.16
2022-08-12T00:13:07.512Z,96499.16
2022-08-12T00:15:54.462Z,96500.66
2022-08-12T00:18:39.550Z,96491.50
2022-08-12T00:21:24.942Z,96497.22
2022-08-12T00:24:12.813Z,96492.28
2022-08-12T00:26:59.943Z,96489.63
2022-08-12T00:29:47.955Z,96491.91
2022-08-12T00:32:35.785Z,96499.53
2022-08-12T00:35:39.380Z,96490.38
2022-08-12T00:38:25.616Z,96494.94
2022-08-12T00:41:11.013Z,96486.97
2022-08-12T00:43:38.323Z,96490.38
2022-08-12T00:46:23.574Z,96474.38
2022-08-12T00:48:51.017Z,96485.03
2022-08-12T00:51:17.644Z,96486.56
2022-08-12T00:53:44.547Z,96489.59
2022-08-12T00:56:11.114Z,96483.50
2022-08-12T00:58:45.391Z,96482.75
2022-08-12T01:01:12.787Z,96473.63
2022-08-12T01:03:59.622Z,96479.34
2022-08-12T01:06:51.107Z,96464.09
2022-08-12T01:09:41.083Z,96471.72
2022-08-12T01:12:10.831Z,96475.13
2022-08-12T01:14:37.955Z,96472.84
2022-08-12T01:17:05.044Z,96473.63
2022-08-12T01:19:32.433Z,96462.94
2022-08-12T01:22:22.576Z,96458.38
2022-08-12T01:24:54.824Z,96471.31
2022-08-12T01:27:23.580Z,96470.94
2022-08-12T01:29:53.936Z,96480.47
2022-08-12T01:36:11.415Z,96475.50
2022-08-12T01:38:38.419Z,96462.91
2022-08-12T01:41:05.406Z,96469.78
2022-08-12T01:43:32.511Z,96471.69
2022-08-12T01:46:14.682Z,96472.81
2022-08-12T01:49:12.185Z,96466.72
2022-08-12T01:52:15.198Z,96456.03
2022-08-12T01:54:31.724Z,96456.06
2022-08-12T01:57:16.719Z,96462.16
2022-08-12T02:00:12.304Z,96451.06
2022-08-12T02:03:03.906Z,96446.88
2022-08-12T02:06:26.986Z,96451.06
2022-08-12T02:09:18.502Z,96444.19
2022-08-12T02:12:04.620Z,96455.25
2022-08-12T02:14:35.667Z,96457.13
2022-08-12T02:17:08.223Z,96454.84
2022-08-12T02:19:56.861Z,96455.19
2022-08-12T02:22:30.544Z,96441.88
2022-08-12T02:25:12.182Z,96455.91
2022-08-12T02:27:50.164Z,96436.88
2022-08-12T02:30:20.819Z,96436.88
2022-08-12T02:32:53.318Z,96435.34
2022-08-12T02:35:23.012Z,96440.28
2022-08-12T02:37:52.487Z,96433.78
2022-08-12T02:40:21.130Z,96433.44
2022-08-12T02:43:00.490Z,96417.44
2022-08-12T02:45:45.296Z,96428.06
2022-08-12T02:48:24.716Z,96426.94
2022-08-12T02:50:53.310Z,96422.00
2022-08-12T02:53:20.161Z,96414.78
2022-08-12T02:55:46.901Z,96424.25
2022-08-12T02:58:14.870Z,96413.94
2022-08-12T03:00:43.323Z,96423.44
2022-08-12T03:03:13.028Z,96423.03
2022-08-12T03:05:59.444Z,96424.91
2022-08-12T03:08:32.496Z,96428.66
2022-08-12T03:11:04.305Z,96427.53
2022-08-12T03:13:36.557Z,96434.72
2022-08-12T03:16:03.204Z,96425.50
2022-08-12T03:18:31.491Z,96419.38
2022-08-12T03:21:00.078Z,96427.72
2022-08-12T03:23:30.833Z,96422.00
2022-08-12T03:26:02.469Z,96415.91
2022-08-12T03:28:50.413Z,96404.88
2022-08-12T03:31:19.999Z,96420.44
2022-08-12T03:34:01.605Z,96422.00
2022-08-12T03:36:36.521Z,96424.97
2022-08-12T03:39:19.189Z,96427.25
2022-08-12T03:42:08.986Z,96415.03
2022-08-12T03:44:57.560Z,96421.03
2022-08-12T03:48:03.826Z,96422.59
2022-08-12T03:50:49.127Z,96423.34
2022-08-12T03:53:40.948Z,96418.81
2022-08-12T03:56:25.691Z,96413.41
2022-08-12T03:59:13.511Z,96418.72
2022-08-12T04:01:41.237Z,96412.22
2022-08-12T04:04:10.688Z,96411.88
2022-08-12T04:10:48.384Z,96398.22
2022-08-12T04:13:21.177Z,96413.78
2022-08-12T04:15:48.011Z,96408.09
2022-08-12T04:18:18.749Z,96394.88
2022-08-12T04:20:50.006Z,96403.59
2022-08-12T04:23:17.771Z,96410.06
2022-08-12T04:25:44.896Z,96415.00
2022-08-12T04:28:13.675Z,96415.78
2022-08-12T04:30:40.888Z,96416.16
2022-08-12T04:33:12.977Z,96415.78
2022-08-12T04:35:39.676Z,96410.84
2022-08-12T04:38:07.458Z,96420.06
2022-08-12T04:40:36.358Z,96421.31
2022-08-12T04:43:03.369Z,96416.03
2022-08-12T04:45:32.886Z,96419.84
2022-08-12T04:47:59.507Z,96425.09
2022-08-12T04:50:34.227Z,96421.41
2022-08-12T04:53:08.203Z,96419.16
2022-08-12T04:55:39.976Z,96426.41
2022-08-12T04:58:08.341Z,96420.03
2022-08-12T05:00:36.480Z,96423.66
2022-08-12T05:03:05.410Z,96420.25
2022-08-12T05:05:36.324Z,96428.09
2022-08-12T05:08:04.230Z,96421.28
2022-08-12T05:10:33.513Z,96428.31
2022-08-12T05:13:07.221Z,96422.69
2022-08-12T05:15:35.997Z,96432.69
2022-08-12T05:18:19.160Z,96435.91
2022-08-12T05:20:46.378Z,96442.16
2022-08-12T05:23:17.719Z,96445.22
2022-08-12T05:25:45.711Z,96443.81
2022-08-12T05:28:13.773Z,96442.28
2022-08-12T05:30:42.552Z,96439.63
2022-08-12T05:33:10.534Z,96441.50
2022-08-12T05:35:40.449Z,96440.38
2022-08-12T05:38:26.051Z,96431.41
2022-08-12T05:40:52.858Z,96434.25
2022-08-12T05:43:19.909Z,96441.47
2022-08-12T05:45:47.159Z,96437.16
2022-08-12T05:48:14.163Z,96446.75
2022-08-12T05:50:41.322Z,96439.13
2022-08-12T05:53:08.185Z,96439.88
2022-08-12T05:55:35.840Z,96438.34
2022-08-12T05:58:03.154Z,96440.03
2022-08-12T06:00:31.828Z,96440.00
2022-08-12T06:03:02.057Z,96439.63
2022-08-12T06:05:34.418Z,96435.66
2022-08-12T06:08:20.848Z,96444.78
2022-08-12T06:10:47.357Z,96455.88
2022-08-12T06:13:15.152Z,96453.66
2022-08-12T06:15:55.673Z,96464.00
2022-08-12T06:18:24.439Z,96468.59
2022-08-12T06:21:00.211Z,96462.22
2022-08-12T06:23:29.735Z,96480.09
2022-08-12T06:25:57.260Z,96481.00
2022-08-12T06:28:24.040Z,96479.03
2022-08-12T06:31:14.914Z,96485.66
2022-08-12T06:33:59.668Z,96479.66
2022-08-12T06:36:29.439Z,96488.56
2022-08-12T06:38:58.900Z,96484.16
2022-08-12T06:42:30.604Z,96474.81
2022-08-12T06:44:32.896Z,96478.13
2022-08-12T06:46:59.592Z,96481.19
2022-08-12T06:49:27.604Z,96480.53
2022-08-12T06:51:56.733Z,96473.44
2022-08-12T06:54:30.917Z,96482.38
2022-08-12T06:57:05.229Z,96482.88
2022-08-12T06:59:46.483Z,96485.66
2022-08-12T07:02:12.970Z,96482.91
2022-08-12T07:04:39.787Z,96481.16
2022-08-12T07:07:10.298Z,96480.06
2022-08-12T07:10:04.157Z,96485.19
2022-08-12T07:12:29.337Z,96481.31
2022-08-12T07:14:57.610Z,96484.59
2022-08-12T07:17:24.301Z,96488.38
2022-08-12T07:19:52.017Z,96485.56
2022-08-12T07:22:19.092Z,96490.00
2022-08-12T07:25:05.757Z,96496.84
2022-08-12T07:27:38.665Z,96493.44
2022-08-12T07:30:07.360Z,96493.25
2022-08-12T07:32:33.831Z,96484.31
2022-08-12T07:35:00.294Z,96487.28
2022-08-12T07:37:26.788Z,96482.16
2022-08-12T07:40:00.321Z,96481.63
2022-08-12T07:42:28.209Z,96492.41
2022-08-12T07:44:55.927Z,96485.81
2022-08-12T07:47:23.069Z,96485.03
2022-08-12T07:50:05.289Z,96485.56
2022-08-12T07:52:35.526Z,96484.25
2022-08-12T07:55:02.934Z,96479.16
2022-08-12T07:57:29.654Z,96481.47
2022-08-12T07:59:56.298Z,96482.38
2022-08-12T08:02:26.599Z,96479.84
2022-08-12T08:04:57.398Z,96481.25
2022-08-12T08:07:30.502Z,96473.47
2022-08-12T08:09:59.869Z,96480.22
2022-08-12T08:12:46.436Z,96479.81
2022-08-12T08:15:15.009Z,96475.13
2022-08-12T08:17:57.793Z,96477.75
2022-08-12T08:20:30.763Z,96483.13
2022-08-12T08:22:58.919Z,96483.13
2022-08-12T08:25:35.769Z,96476.50
2022-08-12T08:28:06.232Z,96467.88
2022-08-12T08:30:34.081Z,96471.94
2022-08-12T08:33:00.802Z,96478.47
2022-08-12T08:35:28.156Z,96476.41
2022-08-12T08:38:19.847Z,96472.75
2022-08-12T08:42:15.208Z,96471.63
2022-08-12T08:44:05.887Z,96467.22
2022-08-12T08:46:37.917Z,96478.13
2022-08-12T08:49:05.705Z,96465.16
2022-08-12T08:51:32.583Z,96472.13
2022-08-12T08:53:59.078Z,96475.63
2022-08-12T08:56:25.873Z,96477.69
2022-08-12T08:58:52.520Z,96473.94
2022-08-12T09:01:22.433Z,96482.00
2022-08-12T09:05:07.638Z,96479.38
2022-08-12T09:09:24.013Z,96490.59
2022-08-12T09:14:56.111Z,96473.25
2022-08-12T09:17:24.107Z,96471.72
2022-08-12T09:19:57.297Z,96480.88
2022-08-12T09:25:11.205Z,96471.88
2022-08-12T09:28:04.164Z,96472.03
2022-08-12T09:30:42.038Z,96464.22
2022-08-12T09:33:14.916Z,96457.38
2022-08-12T09:36:03.131Z,96469.94
2022-08-12T09:38:33.718Z,96455.97
2022-08-12T09:42:35.245Z,96466.50
2022-08-12T09:44:38.120Z,96462.50
2022-08-12T09:46:54.489Z,96458.38
2022-08-12T09:49:25.007Z,96452.94
2022-08-12T09:51:55.404Z,96452.13
2022-08-12T09:54:34.394Z,96452.72
2022-08-12T09:58:44.984Z,96446.53
2022-08-12T10:00:16.186Z,96455.25
2022-08-12T10:03:32.315Z,96445.75
2022-08-12T10:06:26.416Z,96443.09
2022-08-12T10:08:52.505Z,96453.22
2022-08-12T10:12:12.314Z,96431.66
2022-08-12T10:14:34.921Z,96442.28
2022-08-12T10:17:02.338Z,96435.22
2022-08-12T10:19:36.349Z,96436.31
2022-08-12T10:22:16.465Z,96429.66
2022-08-12T10:24:53.049Z,96428.63
2022-08-12T10:28:03.792Z,96421.59
2022-08-12T10:30:39.944Z,96422.28
2022-08-12T10:33:18.981Z,96428.28
2022-08-12T10:35:45.862Z,96420.19
2022-08-12T10:38:35.506Z,96422.41
2022-08-12T10:41:21.145Z,96411.91
2022-08-12T10:43:54.486Z,96423.28
2022-08-12T10:46:30.672Z,96422.53
2022-08-12T10:49:05.969Z,96421.97
2022-08-12T10:51:49.096Z,96418.03
2022-08-12T10:54:29.826Z,96401.72
2022-08-12T10:57:00.741Z,96412.72
2022-08-12T10:59:58.174Z,96414.56
2022-08-12T11:04:23.363Z,96398.97
2022-08-12T11:07:02.148Z,96399.13
2022-08-12T11:08:34.205Z,96399.16
2022-08-12T11:10:37.554Z,96404.59
2022-08-12T11:13:08.385Z,96404.41
2022-08-12T11:16:03.779Z,96403.91
2022-08-12T11:18:25.158Z,96402.06
2022-08-12T11:20:54.273Z,96407.13
2022-08-12T11:23:37.525Z,96396.19
2022-08-12T11:26:07.923Z,96388.16
2022-08-12T11:28:36.917Z,96389.34
2022-08-12T11:31:07.024Z,96384.19
2022-08-12T11:34:05.526Z,96381.38
2022-08-12T11:36:23.219Z,96369.03
2022-08-12T11:38:51.316Z,96362.13
2022-08-12T11:41:31.032Z,96372.13
2022-08-12T11:44:35.170Z,96368.97
2022-08-12T11:46:51.223Z,96370.22
2022-08-12T11:49:31.400Z,96359.03
2022-08-12T11:52:00.858Z,96367.53
2022-08-12T11:54:29.484Z,96354.50
2022-08-12T11:56:59.676Z,96367.91
2022-08-12T12:03:14.392Z,96358.84
2022-08-12T12:05:45.827Z,96365.91
2022-08-12T12:08:37.188Z,96375.13
2022-08-12T12:11:09.428Z,96374.34
2022-08-12T12:14:06.696Z,96369.13
2022-08-12T12:16:22.498Z,96361.34
2022-08-12T12:18:48.936Z,96367.22
2022-08-12T12:21:16.715Z,96377.28
2022-08-12T12:23:47.160Z,96370.59
2022-08-12T12:30:19.964Z,96379.34
2022-08-12T12:32:53.519Z,96365.66
2022-08-12T12:36:18.460Z,96364.69
2022-08-12T12:38:12.157Z,96370.13
2022-08-12T12:40:41.139Z,96353.66
2022-08-12T12:43:08.602Z,96359.59
2022-08-12T12:45:37.285Z,96349.06
2022-08-12T12:48:08.286Z,96355.41
2022-08-12T12:50:42.423Z,96348.19
2022-08-12T12:54:06.305Z,96348.47
2022-08-12T12:56:15.354Z,96339.31
2022-08-12T12:58:43.476Z,96342.69
2022-08-12T13:01:25.503Z,96337.91
2022-08-12T13:04:02.284Z,96337.19
2022-08-12T13:06:31.578Z,96330.22
2022-08-12T13:09:02.796Z,96335.59
2022-08-12T13:11:41.884Z,96327.66
2022-08-12T13:14:28.608Z,96332.22
2022-08-12T13:16:57.393Z,96330.72
2022-08-12T13:19:25.086Z,96335.22
2022-08-12T13:22:19.064Z,96337.84
2022-08-12T13:24:54.774Z,96341.97
2022-08-12T13:27:23.216Z,96329.66
2022-08-12T13:30:01.984Z,96335.25
2022-08-12T13:32:31.329Z,96343.66
2022-08-12T13:35:03.798Z,96339.16
2022-08-12T13:37:43.823Z,96342.53
2022-08-12T13:40:17.868Z,96338.31
2022-08-12T13:42:46.311Z,96349.50
2022-08-12T13:45:13.628Z,96348.09
2022-08-12T13:48:03.593Z,96358.88
2022-08-12T13:50:33.795Z,96364.22
2022-08-12T13:53:23.094Z,96360.56
2022-08-12T13:55:59.606Z,96374.13
2022-08-12T13:58:30.281Z,96362.94
2022-08-12T14:00:58.207Z,96377.72
2022-08-12T14:03:28.314Z,96386.88
2022-08-12T14:06:15.417Z,96399.19
2022-08-12T14:08:43.095Z,96399.47
2022-08-12T14:11:09.859Z,96402.09
2022-08-12T14:14:04.101Z,96403.69
2022-08-12T14:16:37.415Z,96398.09
2022-08-12T14:19:22.003Z,96374.94
2022-08-12T14:25:40.677Z,96375.94
2022-08-12T14:28:15.493Z,96374.09
2022-08-12T14:30:59.777Z,96386.53
2022-08-12T14:33:44.102Z,96378.53
2022-08-12T14:36:12.850Z,96369.50
2022-08-12T14:38:41.588Z,96364.22
2022-08-12T14:41:13.475Z,96365.22
2022-08-12T14:43:59.148Z,96364.97
2022-08-12T14:46:29.253Z,96360.34
2022-08-12T14:48:55.769Z,96367.94
2022-08-12T14:52:57.764Z,96361.81
2022-08-12T14:57:00.056Z,96356.75
2022-08-12T14:57:18.960Z,96357.63
2022-08-12T15:03:52.154Z,96348.00
2022-08-12T15:06:39.916Z,96353.78
2022-08-12T15:09:06.930Z,96352.56
2022-08-12T15:11:54.684Z,96341.00
2022-08-12T15:14:22.251Z,96345.63
2022-08-12T15:16:48.827Z,96337.78
2022-08-12T15:20:31.701Z,96336.94
2022-08-12T15:22:35.414Z,96351.34
2022-08-12T15:24:49.601Z,96344.94
2022-08-12T15:27:16.252Z,96349.47
2022-08-12T15:29:52.268Z,96351.19
2022-08-12T15:32:20.172Z,96355.53
2022-08-12T15:34:58.587Z,96353.41
2022-08-12T15:38:08.106Z,96357.28
2022-08-12T15:40:14.584Z,96363.22
2022-08-12T15:42:50.741Z,96351.56
2022-08-12T15:45:23.615Z,96355.38
2022-08-12T15:47:53.507Z,96354.38
2022-08-12T15:50:45.531Z,96354.59
2022-08-12T15:53:15.443Z,96350.38
2022-08-12T15:55:45.708Z,96348.38
2022-08-12T15:58:13.050Z,96350.53
2022-08-12T16:00:43.234Z,96353.69
2022-08-12T16:03:13.342Z,96351.63
2022-08-12T16:06:13.106Z,96348.44
2022-08-12T16:08:29.778Z,96343.09
2022-08-12T16:10:56.892Z,96352.88
2022-08-12T16:13:34.205Z,96352.06
2022-08-12T16:16:22.666Z,96351.75
2022-08-12T16:18:51.402Z,96363.38
2022-08-12T16:21:52.558Z,96350.25
2022-08-12T16:24:08.068Z,96337.00
2022-08-12T16:26:35.852Z,96347.16
2022-08-12T16:29:15.188Z,96349.50
2022-08-12T16:31:43.283Z,96341.75
2022-08-12T16:34:26.187Z,96343.16
2022-08-12T16:37:03.181Z,96343.16
2022-08-12T16:39:59.529Z,96340.16
2022-08-12T16:42:22.645Z,96342.50
2022-08-12T16:44:55.372Z,96342.94
2022-08-12T16:47:23.493Z,96344.97
2022-08-12T16:49:55.650Z,96344.00
2022-08-12T16:52:22.461Z,96334.41
2022-08-12T16:55:46.024Z,96338.59
2022-08-12T16:58:30.203Z,96349.16
2022-08-12T17:00:58.676Z,96351.47
2022-08-12T17:03:32.231Z,96343.13
2022-08-12T17:06:03.681Z,96349.88
2022-08-12T17:08:30.272Z,96340.81
2022-08-12T17:10:56.816Z,96339.63
2022-08-12T17:13:26.264Z,96338.22
2022-08-12T17:16:05.744Z,96345.63
2022-08-12T17:18:42.650Z,96331.25
2022-08-12T17:21:41.654Z,96334.47
2022-08-12T17:24:11.022Z,96342.41
2022-08-12T17:26:45.479Z,96332.69
2022-08-12T17:29:24.355Z,96331.66
2022-08-12T17:32:08.787Z,96334.78
2022-08-12T17:34:54.637Z,96335.28
2022-08-12T17:37:21.513Z,96335.03
2022-08-12T17:40:15.016Z,96343.59
2022-08-12T17:42:35.640Z,96349.06
2022-08-12T17:45:17.225Z,96341.22
2022-08-12T17:48:04.794Z,96354.16
2022-08-12T17:50:34.568Z,96347.44
2022-08-12T17:53:02.787Z,96353.72
2022-08-12T17:55:43.640Z,96347.41
2022-08-12T17:58:12.794Z,96341.63
2022-08-12T18:00:45.520Z,96340.25
2022-08-12T18:04:04.397Z,96346.16
2022-08-12T18:06:08.549Z,96343.69
2022-08-12T18:08:54.407Z,96344.38
2022-08-12T18:12:03.650Z,96343.19
2022-08-12T18:14:29.129Z,96353.22
2022-08-12T18:16:58.107Z,96345.09
2022-08-12T18:19:27.553Z,96350.94
2022-08-12T18:22:14.025Z,96346.22
2022-08-12T18:24:41.235Z,96353.66
2022-08-12T18:27:27.269Z,96341.94
2022-08-12T18:29:55.679Z,96342.78
2022-08-12T18:32:53.977Z,96356.13
2022-08-12T18:35:12.272Z,96355.09
2022-08-12T18:37:42.601Z,96353.63
2022-08-12T18:44:05.173Z,96361.38
2022-08-12T18:47:15.263Z,96365.22
2022-08-12T18:49:43.365Z,96360.53
2022-08-12T18:52:11.588Z,96366.72
2022-08-12T18:54:49.083Z,96357.31
2022-08-12T18:57:45.976Z,96371.41
2022-08-12T19:00:21.018Z,96369.72
2022-08-12T19:02:50.913Z,96375.16
2022-08-12T19:05:17.740Z,96366.94
2022-08-12T19:07:59.882Z,96375.00
2022-08-12T19:14:25.457Z,96376.81
2022-08-12T19:16:56.501Z,96375.38
2022-08-12T19:19:26.069Z,96381.97
2022-08-12T19:21:56.907Z,96377.44
2022-08-12T19:24:44.445Z,96378.66
2022-08-12T19:27:13.103Z,96374.25
2022-08-12T19:29:44.154Z,96371.50
2022-08-12T19:32:13.813Z,96366.97
2022-08-12T19:35:54.139Z,96363.06
2022-08-12T19:38:06.736Z,96365.31
2022-08-12T19:40:32.530Z,96368.38
2022-08-12T19:43:18.896Z,96370.56
2022-08-12T19:45:50.454Z,96368.66
2022-08-12T19:48:19.184Z,96366.03
2022-08-12T19:50:50.634Z,96365.69
2022-08-12T19:53:24.385Z,96376.00
2022-08-12T19:55:55.790Z,96367.44
2022-08-12T19:58:23.617Z,96362.91
2022-08-12T20:00:54.759Z,96367.97
2022-08-12T20:03:40.611Z,96367.78
2022-08-12T20:06:15.493Z,96366.59
2022-08-12T20:08:48.704Z,96367.81
2022-08-12T20:12:11.143Z,96375.94
2022-08-12T20:14:06.654Z,96366.41
2022-08-12T20:16:57.870Z,96370.31
2022-08-12T20:19:52.895Z,96369.56
2022-08-12T20:22:14.809Z,96365.03
2022-08-12T20:24:45.400Z,96366.56
2022-08-12T20:27:53.694Z,96371.91
2022-08-12T20:30:00.989Z,96364.38
2022-08-12T20:32:29.778Z,96372.78
2022-08-12T20:35:10.238Z,96369.41
2022-08-12T20:38:06.795Z,96363.72
2022-08-12T20:40:24.075Z,96361.09
2022-08-12T20:42:53.605Z,96367.22
2022-08-12T20:45:21.523Z,96370.66
2022-08-12T20:47:55.792Z,96369.19
2022-08-12T20:50:30.656Z,96355.84
2022-08-12T20:53:00.519Z,96341.75
2022-08-12T20:55:42.006Z,96353.56
2022-08-12T20:58:09.705Z,96353.59
2022-08-12T21:00:36.250Z,96353.22
2022-08-12T21:03:21.414Z,96349.06
2022-08-12T21:06:12.348Z,96349.81
2022-08-12T21:08:40.329Z,96357.06
2022-08-12T21:11:09.569Z,96349.06
2022-08-12T21:13:39.286Z,96353.66
2022-08-12T21:16:06.256Z,96356.72
2022-08-12T21:18:36.829Z,96361.69
2022-08-12T21:21:06.749Z,96362.84
2022-08-12T21:23:50.135Z,96368.94
2022-08-12T21:26:17.847Z,96366.63
2022-08-12T21:28:56.807Z,96371.22
2022-08-12T21:32:37.872Z,96365.09
2022-08-12T21:34:17.888Z,96367.00
2022-08-12T21:36:48.539Z,96365.06
2022-08-12T21:39:35.761Z,96357.06
2022-08-12T21:42:06.901Z,96359.34
2022-08-12T21:45:48.177Z,96365.03
2022-08-12T21:47:23.362Z,96350.97
2022-08-12T21:50:03.460Z,96364.28
2022-08-12T21:52:40.873Z,96365.00
2022-08-12T21:55:17.328Z,96363.13
2022-08-12T21:57:53.521Z,96361.59
2022-08-12T22:00:21.800Z,96360.81
2022-08-12T22:03:07.817Z,96360.81
2022-08-12T22:05:52.947Z,96342.50
2022-08-12T22:08:22.160Z,96353.97
2022-08-12T22:10:52.175Z,96353.19
2022-08-12T22:14:02.114Z,96334.16
2022-08-12T22:16:06.654Z,96340.59
2022-08-12T22:18:33.113Z,96340.22
2022-08-12T22:20:59.649Z,96342.47
2022-08-12T22:23:52.265Z,96342.84
2022-08-12T22:26:16.057Z,96350.81
2022-08-12T22:29:17.149Z,96347.34
2022-08-12T22:31:43.949Z,96353.44
2022-08-12T22:34:18.400Z,96349.28
2022-08-12T22:36:45.702Z,96342.03
2022-08-12T22:39:12.303Z,96356.09
2022-08-12T22:42:01.248Z,96348.81
2022-08-12T22:44:54.351Z,96346.88
2022-08-12T22:47:53.288Z,96349.91
2022-08-12T22:50:27.971Z,96349.13
2022-08-12T22:53:15.098Z,96352.53
2022-08-12T22:56:00.623Z,96342.25
2022-08-12T22:58:31.680Z,96345.63
2022-08-12T23:01:01.881Z,96338.41
2022-08-12T23:03:48.116Z,96336.09
2022-08-12T23:06:19.817Z,96330.78
2022-08-12T23:08:46.902Z,96343.34
2022-08-12T23:11:14.531Z,96345.94
2022-08-12T23:13:49.038Z,96337.13
2022-08-12T23:16:31.564Z,96337.88
2022-08-12T23:19:22.911Z,96345.47
2022-08-12T23:22:03.550Z,96333.28
2022-08-12T23:24:34.993Z,96337.50
2022-08-12T23:27:21.791Z,96334.50
2022-08-12T23:30:17.809Z,96328.25
2022-08-12T23:32:37.001Z,96330.56
2022-08-12T23:35:06.461Z,96332.13
2022-08-12T23:37:46.717Z,96328.66
2022-08-12T23:40:21.972Z,96319.50
2022-08-12T23:42:48.844Z,96326.34
2022-08-12T23:45:20.337Z,96323.28
2022-08-12T23:48:00.050Z,96324.03
2022-08-12T23:50:33.795Z,96316.00
2022-08-12T23:53:05.425Z,96321.69
2022-08-12T23:55:35.868Z,96312.19
2022-08-12T23:58:21.378Z,96316.00
